sensor_id;sensor_type;location;lat;lon;timestamp;P1;durP1;ratioP1;P2;durP2;ratioP2
35084;SDS011;21267;51.032;6.998;2023-07-31T00:01:39;9.27;;;4.18;;
35084;SDS011;21267;51.032;6.998;2023-07-31T00:04:06;8.55;;;4.00;;
35084;SDS011;21267;51.032;6.998;2023-07-31T00:06:33;8.80;;;4.50;;
35084;SDS011;21267;51.032;6.998;2023-07-31T00:09:08;9.60;;;4.25;;
35084;SDS011;21267;51.032;6.998;2023-07-31T00:11:34;10.27;;;4.40;;
35084;SDS011;21267;51.032;6.998;2023-07-31T00:14:01;8.25;;;3.65;;
35084;SDS011;21267;51.032;6.998;2023-07-31T00:16:28;8.80;;;3.65;;
35084;SDS011;21267;51.032;6.998;2023-07-31T00:18:57;9.50;;;4.10;;
35084;SDS011;21267;51.032;6.998;2023-07-31T00:21:24;7.70;;;3.03;;
35084;SDS011;21267;51.032;6.998;2023-07-31T00:23:50;12.15;;;5.60;;
35084;SDS011;21267;51.032;6.998;2023-07-31T00:26:17;9.05;;;3.67;;
35084;SDS011;21267;51.032;6.998;2023-07-31T00:28:44;10.65;;;4.20;;
35084;SDS011;21267;51.032;6.998;2023-07-31T00:31:13;11.73;;;3.30;;
35084;SDS011;21267;51.032;6.998;2023-07-31T00:33:40;12.27;;;4.87;;
35084;SDS011;21267;51.032;6.998;2023-07-31T00:36:07;9.82;;;3.60;;
35084;SDS011;21267;51.032;6.998;2023-07-31T00:38:33;5.17;;;2.30;;
35084;SDS011;21267;51.032;6.998;2023-07-31T00:41:00;9.43;;;3.80;;
35084;SDS011;21267;51.032;6.998;2023-07-31T00:43:28;9.75;;;4.75;;
35084;SDS011;21267;51.032;6.998;2023-07-31T00:45:54;9.77;;;4.33;;
35084;SDS011;21267;51.032;6.998;2023-07-31T00:48:21;6.53;;;3.60;;
35084;SDS011;21267;51.032;6.998;2023-07-31T00:50:55;5.43;;;3.50;;
35084;SDS011;21267;51.032;6.998;2023-07-31T00:53:21;7.70;;;3.85;;
35084;SDS011;21267;51.032;6.998;2023-07-31T00:55:49;7.03;;;3.83;;
35084;SDS011;21267;51.032;6.998;2023-07-31T00:58:16;10.13;;;3.92;;
35084;SDS011;21267;51.032;6.998;2023-07-31T01:00:42;5.28;;;2.58;;
35084;SDS011;21267;51.032;6.998;2023-07-31T01:03:10;7.78;;;3.88;;
35084;SDS011;21267;51.032;6.998;2023-07-31T01:11:19;5.05;;;3.15;;
35084;SDS011;21267;51.032;6.998;2023-07-31T01:13:53;7.32;;;3.50;;
35084;SDS011;21267;51.032;6.998;2023-07-31T01:16:21;5.30;;;3.08;;
35084;SDS011;21267;51.032;6.998;2023-07-31T01:18:48;5.40;;;3.10;;
35084;SDS011;21267;51.032;6.998;2023-07-31T01:27:10;6.13;;;2.95;;
35084;SDS011;21267;51.032;6.998;2023-07-31T01:29:47;7.10;;;3.00;;
35084;SDS011;21267;51.032;6.998;2023-07-31T01:32:19;6.40;;;3.05;;
35084;SDS011;21267;51.032;6.998;2023-07-31T01:34:49;6.25;;;2.85;;
35084;SDS011;21267;51.032;6.998;2023-07-31T01:37:17;4.68;;;2.30;;
35084;SDS011;21267;51.032;6.998;2023-07-31T01:39:44;5.93;;;3.10;;
35084;SDS011;21267;51.032;6.998;2023-07-31T01:42:11;8.43;;;2.93;;
35084;SDS011;21267;51.032;6.998;2023-07-31T01:44:38;6.88;;;3.25;;
35084;SDS011;21267;51.032;6.998;2023-07-31T01:49:32;9.10;;;3.70;;
35084;SDS011;21267;51.032;6.998;2023-07-31T01:51:58;8.73;;;3.60;;
35084;SDS011;21267;51.032;6.998;2023-07-31T01:54:26;7.18;;;3.63;;
35084;SDS011;21267;51.032;6.998;2023-07-31T01:56:53;7.63;;;3.17;;
35084;SDS011;21267;51.032;6.998;2023-07-31T01:59:22;7.32;;;3.25;;
35084;SDS011;21267;51.032;6.998;2023-07-31T02:01:49;9.10;;;3.25;;
35084;SDS011;21267;51.032;6.998;2023-07-31T02:04:19;8.15;;;3.47;;
35084;SDS011;21267;51.032;6.998;2023-07-31T02:06:46;6.80;;;3.60;;
35084;SDS011;21267;51.032;6.998;2023-07-31T02:09:13;7.68;;;2.50;;
35084;SDS011;21267;51.032;6.998;2023-07-31T02:11:39;8.30;;;2.65;;
35084;SDS011;21267;51.032;6.998;2023-07-31T02:14:06;4.90;;;2.33;;
35084;SDS011;21267;51.032;6.998;2023-07-31T02:16:34;6.80;;;2.95;;
35084;SDS011;21267;51.032;6.998;2023-07-31T02:19:01;9.80;;;4.30;;
35084;SDS011;21267;51.032;6.998;2023-07-31T02:21:28;12.80;;;5.23;;
35084;SDS011;21267;51.032;6.998;2023-07-31T02:23:54;13.37;;;4.17;;
35084;SDS011;21267;51.032;6.998;2023-07-31T02:26:21;9.67;;;4.90;;
35084;SDS011;21267;51.032;6.998;2023-07-31T02:28:48;7.25;;;3.67;;
35084;SDS011;21267;51.032;6.998;2023-07-31T02:31:15;11.77;;;5.25;;
35084;SDS011;21267;51.032;6.998;2023-07-31T02:33:42;8.97;;;3.77;;
35084;SDS011;21267;51.032;6.998;2023-07-31T02:36:08;9.60;;;4.30;;
35084;SDS011;21267;51.032;6.998;2023-07-31T02:38:35;7.57;;;3.65;;
35084;SDS011;21267;51.032;6.998;2023-07-31T02:41:02;9.43;;;3.90;;
35084;SDS011;21267;51.032;6.998;2023-07-31T02:43:28;7.53;;;3.15;;
35084;SDS011;21267;51.032;6.998;2023-07-31T02:45:55;7.35;;;3.35;;
35084;SDS011;21267;51.032;6.998;2023-07-31T02:48:22;6.37;;;4.13;;
35084;SDS011;21267;51.032;6.998;2023-07-31T02:50:48;6.72;;;3.40;;
35084;SDS011;21267;51.032;6.998;2023-07-31T02:53:15;10.77;;;4.13;;
35084;SDS011;21267;51.032;6.998;2023-07-31T02:55:42;8.03;;;2.70;;
35084;SDS011;21267;51.032;6.998;2023-07-31T02:58:09;11.80;;;4.65;;
35084;SDS011;21267;51.032;6.998;2023-07-31T03:00:35;10.10;;;4.97;;
35084;SDS011;21267;51.032;6.998;2023-07-31T03:03:03;10.88;;;5.95;;
35084;SDS011;21267;51.032;6.998;2023-07-31T03:05:30;8.20;;;4.67;;
35084;SDS011;21267;51.032;6.998;2023-07-31T03:07:57;15.18;;;5.60;;
35084;SDS011;21267;51.032;6.998;2023-07-31T03:10:25;10.25;;;4.35;;
35084;SDS011;21267;51.032;6.998;2023-07-31T03:12:51;10.60;;;5.30;;
35084;SDS011;21267;51.032;6.998;2023-07-31T03:15:18;11.07;;;3.85;;
35084;SDS011;21267;51.032;6.998;2023-07-31T03:17:45;5.55;;;3.20;;
35084;SDS011;21267;51.032;6.998;2023-07-31T03:20:12;8.43;;;3.85;;
35084;SDS011;21267;51.032;6.998;2023-07-31T03:22:39;7.65;;;4.40;;
35084;SDS011;21267;51.032;6.998;2023-07-31T03:25:06;9.70;;;5.38;;
35084;SDS011;21267;51.032;6.998;2023-07-31T03:27:32;6.28;;;3.90;;
35084;SDS011;21267;51.032;6.998;2023-07-31T03:29:59;9.27;;;4.30;;
35084;SDS011;21267;51.032;6.998;2023-07-31T03:32:27;11.32;;;4.43;;
35084;SDS011;21267;51.032;6.998;2023-07-31T03:34:54;6.70;;;3.53;;
35084;SDS011;21267;51.032;6.998;2023-07-31T03:37:21;8.85;;;3.78;;
35084;SDS011;21267;51.032;6.998;2023-07-31T03:39:48;7.85;;;4.63;;
35084;SDS011;21267;51.032;6.998;2023-07-31T03:42:14;10.93;;;4.93;;
35084;SDS011;21267;51.032;6.998;2023-07-31T03:44:41;5.93;;;3.50;;
35084;SDS011;21267;51.032;6.998;2023-07-31T03:47:08;5.22;;;2.75;;
35084;SDS011;21267;51.032;6.998;2023-07-31T03:49:34;7.57;;;3.57;;
35084;SDS011;21267;51.032;6.998;2023-07-31T03:52:01;9.10;;;4.35;;
35084;SDS011;21267;51.032;6.998;2023-07-31T03:54:28;6.77;;;3.73;;
35084;SDS011;21267;51.032;6.998;2023-07-31T03:56:54;10.18;;;4.63;;
35084;SDS011;21267;51.032;6.998;2023-07-31T03:59:21;7.28;;;3.65;;
35084;SDS011;21267;51.032;6.998;2023-07-31T04:01:48;7.88;;;3.83;;
35084;SDS011;21267;51.032;6.998;2023-07-31T04:04:15;5.82;;;3.60;;
35084;SDS011;21267;51.032;6.998;2023-07-31T04:06:41;11.52;;;5.03;;
35084;SDS011;21267;51.032;6.998;2023-07-31T04:09:08;6.38;;;4.00;;
35084;SDS011;21267;51.032;6.998;2023-07-31T04:11:35;8.32;;;3.65;;
35084;SDS011;21267;51.032;6.998;2023-07-31T04:14:02;8.50;;;3.83;;
35084;SDS011;21267;51.032;6.998;2023-07-31T04:16:28;6.88;;;3.28;;
35084;SDS011;21267;51.032;6.998;2023-07-31T04:18:55;8.85;;;3.95;;
35084;SDS011;21267;51.032;6.998;2023-07-31T04:21:22;5.53;;;3.63;;
35084;SDS011;21267;51.032;6.998;2023-07-31T04:23:48;10.57;;;3.60;;
35084;SDS011;21267;51.032;6.998;2023-07-31T04:26:15;8.63;;;4.22;;
35084;SDS011;21267;51.032;6.998;2023-07-31T04:28:45;7.75;;;4.55;;
35084;SDS011;21267;51.032;6.998;2023-07-31T04:31:11;8.52;;;4.93;;
35084;SDS011;21267;51.032;6.998;2023-07-31T04:33:38;7.13;;;4.53;;
35084;SDS011;21267;51.032;6.998;2023-07-31T04:36:05;10.88;;;5.07;;
35084;SDS011;21267;51.032;6.998;2023-07-31T04:38:31;10.13;;;5.32;;
35084;SDS011;21267;51.032;6.998;2023-07-31T04:40:58;11.43;;;5.43;;
35084;SDS011;21267;51.032;6.998;2023-07-31T04:43:27;12.13;;;7.05;;
35084;SDS011;21267;51.032;6.998;2023-07-31T04:45:54;15.00;;;7.53;;
35084;SDS011;21267;51.032;6.998;2023-07-31T04:48:21;9.82;;;6.22;;
35084;SDS011;21267;51.032;6.998;2023-07-31T04:50:47;10.00;;;5.90;;
35084;SDS011;21267;51.032;6.998;2023-07-31T04:53:14;13.43;;;6.70;;
35084;SDS011;21267;51.032;6.998;2023-07-31T04:55:41;8.73;;;6.35;;
35084;SDS011;21267;51.032;6.998;2023-07-31T04:58:09;10.20;;;6.63;;
35084;SDS011;21267;51.032;6.998;2023-07-31T05:03:02;9.15;;;5.10;;
35084;SDS011;21267;51.032;6.998;2023-07-31T05:05:29;10.73;;;5.50;;
35084;SDS011;21267;51.032;6.998;2023-07-31T05:07:56;8.27;;;5.17;;
35084;SDS011;21267;51.032;6.998;2023-07-31T05:10:22;9.17;;;4.37;;
35084;SDS011;21267;51.032;6.998;2023-07-31T05:12:49;10.67;;;5.53;;
35084;SDS011;21267;51.032;6.998;2023-07-31T05:15:16;6.30;;;4.55;;
35084;SDS011;21267;51.032;6.998;2023-07-31T05:17:43;5.22;;;3.88;;
35084;SDS011;21267;51.032;6.998;2023-07-31T05:20:10;8.83;;;4.80;;
35084;SDS011;21267;51.032;6.998;2023-07-31T05:22:38;9.30;;;4.95;;
35084;SDS011;21267;51.032;6.998;2023-07-31T05:25:05;5.85;;;5.03;;
35084;SDS011;21267;51.032;6.998;2023-07-31T05:27:32;11.57;;;5.43;;
35084;SDS011;21267;51.032;6.998;2023-07-31T05:29:59;13.70;;;7.07;;
35084;SDS011;21267;51.032;6.998;2023-07-31T05:32:26;12.27;;;7.27;;
35084;SDS011;21267;51.032;6.998;2023-07-31T05:34:52;7.73;;;5.33;;
35084;SDS011;21267;51.032;6.998;2023-07-31T05:37:19;8.27;;;4.60;;
35084;SDS011;21267;51.032;6.998;2023-07-31T05:39:46;10.10;;;4.40;;
35084;SDS011;21267;51.032;6.998;2023-07-31T05:42:13;8.25;;;4.68;;
35084;SDS011;21267;51.032;6.998;2023-07-31T05:44:40;7.40;;;4.03;;
35084;SDS011;21267;51.032;6.998;2023-07-31T05:47:06;8.50;;;4.47;;
35084;SDS011;21267;51.032;6.998;2023-07-31T05:49:34;11.18;;;4.65;;
35084;SDS011;21267;51.032;6.998;2023-07-31T05:52:01;7.23;;;3.90;;
35084;SDS011;21267;51.032;6.998;2023-07-31T05:54:28;6.90;;;4.40;;
35084;SDS011;21267;51.032;6.998;2023-07-31T05:56:55;9.65;;;4.13;;
35084;SDS011;21267;51.032;6.998;2023-07-31T05:59:22;7.18;;;3.83;;
35084;SDS011;21267;51.032;6.998;2023-07-31T06:01:50;7.37;;;5.10;;
35084;SDS011;21267;51.032;6.998;2023-07-31T06:04:17;9.30;;;4.03;;
35084;SDS011;21267;51.032;6.998;2023-07-31T06:06:44;8.50;;;4.40;;
35084;SDS011;21267;51.032;6.998;2023-07-31T06:09:11;5.32;;;4.13;;
35084;SDS011;21267;51.032;6.998;2023-07-31T06:11:38;5.75;;;4.07;;
35084;SDS011;21267;51.032;6.998;2023-07-31T06:14:05;9.23;;;4.80;;
35084;SDS011;21267;51.032;6.998;2023-07-31T06:19:01;10.85;;;6.90;;
35084;SDS011;21267;51.032;6.998;2023-07-31T06:21:29;9.88;;;5.72;;
35084;SDS011;21267;51.032;6.998;2023-07-31T06:23:57;8.93;;;5.78;;
35084;SDS011;21267;51.032;6.998;2023-07-31T06:26:26;8.30;;;4.57;;
35084;SDS011;21267;51.032;6.998;2023-07-31T06:28:54;8.25;;;5.20;;
35084;SDS011;21267;51.032;6.998;2023-07-31T06:33:39;11.75;;;5.82;;
35084;SDS011;21267;51.032;6.998;2023-07-31T06:36:05;8.05;;;5.22;;
35084;SDS011;21267;51.032;6.998;2023-07-31T06:38:33;10.07;;;5.18;;
35084;SDS011;21267;51.032;6.998;2023-07-31T06:41:01;6.82;;;5.00;;
35084;SDS011;21267;51.032;6.998;2023-07-31T06:43:28;9.10;;;5.07;;
35084;SDS011;21267;51.032;6.998;2023-07-31T06:45:55;9.00;;;5.17;;
35084;SDS011;21267;51.032;6.998;2023-07-31T06:48:21;8.60;;;4.90;;
35084;SDS011;21267;51.032;6.998;2023-07-31T06:50:48;8.63;;;4.90;;
35084;SDS011;21267;51.032;6.998;2023-07-31T06:53:15;8.15;;;4.63;;
35084;SDS011;21267;51.032;6.998;2023-07-31T06:55:42;7.88;;;5.00;;
35084;SDS011;21267;51.032;6.998;2023-07-31T06:58:08;8.30;;;4.82;;
35084;SDS011;21267;51.032;6.998;2023-07-31T07:00:35;10.10;;;5.00;;
35084;SDS011;21267;51.032;6.998;2023-07-31T07:03:02;7.05;;;5.03;;
35084;SDS011;21267;51.032;6.998;2023-07-31T07:05:29;6.90;;;4.23;;
35084;SDS011;21267;51.032;6.998;2023-07-31T07:07:55;8.77;;;4.43;;
35084;SDS011;21267;51.032;6.998;2023-07-31T07:10:22;8.82;;;4.57;;
35084;SDS011;21267;51.032;6.998;2023-07-31T07:12:49;8.50;;;4.60;;
35084;SDS011;21267;51.032;6.998;2023-07-31T07:15:16;9.02;;;5.03;;
35084;SDS011;21267;51.032;6.998;2023-07-31T07:17:43;7.55;;;4.90;;
35084;SDS011;21267;51.032;6.998;2023-07-31T07:20:09;9.73;;;7.87;;
35084;SDS011;21267;51.032;6.998;2023-07-31T07:22:38;9.80;;;4.67;;
35084;SDS011;21267;51.032;6.998;2023-07-31T07:25:04;7.32;;;5.03;;
35084;SDS011;21267;51.032;6.998;2023-07-31T07:27:33;8.32;;;4.45;;
35084;SDS011;21267;51.032;6.998;2023-07-31T07:30:00;9.50;;;4.77;;
35084;SDS011;21267;51.032;6.998;2023-07-31T07:32:27;6.40;;;4.57;;
35084;SDS011;21267;51.032;6.998;2023-07-31T07:34:54;7.18;;;4.65;;
35084;SDS011;21267;51.032;6.998;2023-07-31T07:39:48;9.27;;;4.73;;
35084;SDS011;21267;51.032;6.998;2023-07-31T07:42:16;9.90;;;5.50;;
35084;SDS011;21267;51.032;6.998;2023-07-31T07:44:43;8.68;;;5.80;;
35084;SDS011;21267;51.032;6.998;2023-07-31T07:47:09;10.40;;;6.00;;
35084;SDS011;21267;51.032;6.998;2023-07-31T07:49:36;10.05;;;6.68;;
35084;SDS011;21267;51.032;6.998;2023-07-31T07:52:03;10.17;;;7.80;;
35084;SDS011;21267;51.032;6.998;2023-07-31T07:54:30;10.82;;;7.32;;
35084;SDS011;21267;51.032;6.998;2023-07-31T07:56:57;15.05;;;8.98;;
35084;SDS011;21267;51.032;6.998;2023-07-31T07:59:24;16.40;;;8.47;;
35084;SDS011;21267;51.032;6.998;2023-07-31T08:01:51;11.25;;;7.22;;
35084;SDS011;21267;51.032;6.998;2023-07-31T08:04:17;12.70;;;7.18;;
35084;SDS011;21267;51.032;6.998;2023-07-31T08:06:44;10.30;;;7.47;;
35084;SDS011;21267;51.032;6.998;2023-07-31T08:09:11;16.30;;;8.40;;
35084;SDS011;21267;51.032;6.998;2023-07-31T08:11:38;15.57;;;8.77;;
35084;SDS011;21267;51.032;6.998;2023-07-31T08:14:04;12.63;;;8.75;;
35084;SDS011;21267;51.032;6.998;2023-07-31T08:16:31;10.02;;;7.03;;
35084;SDS011;21267;51.032;6.998;2023-07-31T08:18:58;14.70;;;7.83;;
35084;SDS011;21267;51.032;6.998;2023-07-31T08:21:26;13.60;;;6.85;;
35084;SDS011;21267;51.032;6.998;2023-07-31T08:23:54;14.77;;;6.88;;
35084;SDS011;21267;51.032;6.998;2023-07-31T08:26:20;10.82;;;5.05;;
35084;SDS011;21267;51.032;6.998;2023-07-31T08:28:49;9.00;;;4.72;;
35084;SDS011;21267;51.032;6.998;2023-07-31T08:31:16;13.40;;;6.75;;
35084;SDS011;21267;51.032;6.998;2023-07-31T08:33:43;10.20;;;5.87;;
35084;SDS011;21267;51.032;6.998;2023-07-31T08:36:10;10.18;;;5.15;;
35084;SDS011;21267;51.032;6.998;2023-07-31T08:38:36;8.37;;;3.93;;
35084;SDS011;21267;51.032;6.998;2023-07-31T08:41:05;7.65;;;3.80;;
35084;SDS011;21267;51.032;6.998;2023-07-31T08:43:32;6.40;;;4.00;;
35084;SDS011;21267;51.032;6.998;2023-07-31T08:46:00;6.90;;;4.40;;
35084;SDS011;21267;51.032;6.998;2023-07-31T08:48:28;8.85;;;3.90;;
35084;SDS011;21267;51.032;6.998;2023-07-31T08:50:55;5.97;;;3.87;;
35084;SDS011;21267;51.032;6.998;2023-07-31T08:53:22;8.02;;;3.33;;
35084;SDS011;21267;51.032;6.998;2023-07-31T08:55:49;5.50;;;4.27;;
35084;SDS011;21267;51.032;6.998;2023-07-31T08:58:17;8.27;;;4.10;;
35084;SDS011;21267;51.032;6.998;2023-07-31T09:00:44;7.15;;;3.40;;
35084;SDS011;21267;51.032;6.998;2023-07-31T09:03:16;8.00;;;3.88;;
35084;SDS011;21267;51.032;6.998;2023-07-31T09:05:45;5.47;;;3.40;;
35084;SDS011;21267;51.032;6.998;2023-07-31T09:08:13;6.25;;;4.35;;
35084;SDS011;21267;51.032;6.998;2023-07-31T09:10:44;5.32;;;3.30;;
35084;SDS011;21267;51.032;6.998;2023-07-31T09:13:16;4.85;;;3.67;;
35084;SDS011;21267;51.032;6.998;2023-07-31T09:15:45;6.93;;;4.07;;
35084;SDS011;21267;51.032;6.998;2023-07-31T09:18:13;7.47;;;3.50;;
35084;SDS011;21267;51.032;6.998;2023-07-31T09:20:45;7.68;;;4.57;;
35084;SDS011;21267;51.032;6.998;2023-07-31T09:23:13;7.93;;;4.23;;
35084;SDS011;21267;51.032;6.998;2023-07-31T09:25:43;7.20;;;4.15;;
35084;SDS011;21267;51.032;6.998;2023-07-31T09:28:11;5.90;;;3.88;;
35084;SDS011;21267;51.032;6.998;2023-07-31T09:33:15;7.07;;;3.33;;
35084;SDS011;21267;51.032;6.998;2023-07-31T09:35:42;8.00;;;3.78;;
35084;SDS011;21267;51.032;6.998;2023-07-31T09:40:39;4.43;;;3.38;;
35084;SDS011;21267;51.032;6.998;2023-07-31T09:43:11;4.80;;;2.95;;
35084;SDS011;21267;51.032;6.998;2023-07-31T09:45:45;6.40;;;3.20;;
35084;SDS011;21267;51.032;6.998;2023-07-31T09:48:16;5.63;;;3.08;;
35084;SDS011;21267;51.032;6.998;2023-07-31T09:50:47;5.80;;;3.50;;
35084;SDS011;21267;51.032;6.998;2023-07-31T09:53:16;5.47;;;3.00;;
35084;SDS011;21267;51.032;6.998;2023-07-31T09:55:43;4.72;;;2.85;;
35084;SDS011;21267;51.032;6.998;2023-07-31T09:58:12;5.53;;;3.78;;
35084;SDS011;21267;51.032;6.998;2023-07-31T10:00:39;4.53;;;3.10;;
35084;SDS011;21267;51.032;6.998;2023-07-31T10:03:07;4.70;;;2.75;;
35084;SDS011;21267;51.032;6.998;2023-07-31T10:05:50;4.43;;;2.60;;
35084;SDS011;21267;51.032;6.998;2023-07-31T10:08:20;4.63;;;2.45;;
35084;SDS011;21267;51.032;6.998;2023-07-31T10:10:49;3.20;;;2.35;;
35084;SDS011;21267;51.032;6.998;2023-07-31T10:13:17;2.97;;;2.57;;
35084;SDS011;21267;51.032;6.998;2023-07-31T10:15:44;6.45;;;2.75;;
35084;SDS011;21267;51.032;6.998;2023-07-31T10:18:12;5.00;;;3.15;;
35084;SDS011;21267;51.032;6.998;2023-07-31T10:20:40;6.60;;;3.42;;
35084;SDS011;21267;51.032;6.998;2023-07-31T10:23:07;7.72;;;2.60;;
35084;SDS011;21267;51.032;6.998;2023-07-31T10:25:37;3.15;;;2.85;;
35084;SDS011;21267;51.032;6.998;2023-07-31T10:28:05;4.85;;;2.55;;
35084;SDS011;21267;51.032;6.998;2023-07-31T10:30:32;7.05;;;3.03;;
35084;SDS011;21267;51.032;6.998;2023-07-31T10:33:01;3.97;;;2.92;;
35084;SDS011;21267;51.032;6.998;2023-07-31T10:35:42;4.20;;;2.75;;
35084;SDS011;21267;51.032;6.998;2023-07-31T10:38:10;7.40;;;3.10;;
35084;SDS011;21267;51.032;6.998;2023-07-31T10:40:38;9.38;;;5.28;;
35084;SDS011;21267;51.032;6.998;2023-07-31T10:43:34;6.28;;;3.58;;
35084;SDS011;21267;51.032;6.998;2023-07-31T10:46:01;4.55;;;2.78;;
35084;SDS011;21267;51.032;6.998;2023-07-31T10:48:41;3.70;;;2.10;;
35084;SDS011;21267;51.032;6.998;2023-07-31T10:51:21;3.33;;;2.65;;
35084;SDS011;21267;51.032;6.998;2023-07-31T10:53:49;4.75;;;2.75;;
35084;SDS011;21267;51.032;6.998;2023-07-31T10:56:49;6.15;;;2.70;;
35084;SDS011;21267;51.032;6.998;2023-07-31T10:59:26;5.20;;;2.90;;
35084;SDS011;21267;51.032;6.998;2023-07-31T11:01:55;5.53;;;3.42;;
35084;SDS011;21267;51.032;6.998;2023-07-31T11:04:29;3.47;;;2.50;;
35084;SDS011;21267;51.032;6.998;2023-07-31T11:06:58;4.85;;;2.58;;
35084;SDS011;21267;51.032;6.998;2023-07-31T11:09:31;3.95;;;2.50;;
35084;SDS011;21267;51.032;6.998;2023-07-31T11:11:59;4.32;;;2.55;;
35084;SDS011;21267;51.032;6.998;2023-07-31T11:14:26;6.65;;;2.20;;
35084;SDS011;21267;51.032;6.998;2023-07-31T11:16:53;3.10;;;1.63;;
35084;SDS011;21267;51.032;6.998;2023-07-31T11:21:49;3.78;;;2.20;;
35084;SDS011;21267;51.032;6.998;2023-07-31T11:26:52;3.90;;;2.03;;
35084;SDS011;21267;51.032;6.998;2023-07-31T11:29:19;5.43;;;3.17;;
35084;SDS011;21267;51.032;6.998;2023-07-31T11:31:47;7.82;;;3.67;;
35084;SDS011;21267;51.032;6.998;2023-07-31T11:34:17;6.18;;;2.80;;
35084;SDS011;21267;51.032;6.998;2023-07-31T11:36:56;3.00;;;1.63;;
35084;SDS011;21267;51.032;6.998;2023-07-31T11:39:22;3.00;;;2.17;;
35084;SDS011;21267;51.032;6.998;2023-07-31T11:41:58;9.23;;;3.20;;
35084;SDS011;21267;51.032;6.998;2023-07-31T11:44:36;6.30;;;3.33;;
35084;SDS011;21267;51.032;6.998;2023-07-31T11:47:07;1.73;;;1.20;;
35084;SDS011;21267;51.032;6.998;2023-07-31T11:49:34;4.45;;;1.02;;
35084;SDS011;21267;51.032;6.998;2023-07-31T11:52:03;2.85;;;0.80;;
35084;SDS011;21267;51.032;6.998;2023-07-31T11:54:30;1.50;;;0.50;;
35084;SDS011;21267;51.032;6.998;2023-07-31T11:56:57;2.83;;;1.10;;
35084;SDS011;21267;51.032;6.998;2023-07-31T11:59:27;4.07;;;2.55;;
35084;SDS011;21267;51.032;6.998;2023-07-31T12:01:54;1.08;;;0.88;;
35084;SDS011;21267;51.032;6.998;2023-07-31T12:04:21;2.20;;;0.80;;
35084;SDS011;21267;51.032;6.998;2023-07-31T12:06:48;0.93;;;0.68;;
35084;SDS011;21267;51.032;6.998;2023-07-31T12:09:16;2.95;;;1.80;;
35084;SDS011;21267;51.032;6.998;2023-07-31T12:11:43;2.77;;;1.60;;
35084;SDS011;21267;51.032;6.998;2023-07-31T12:14:27;3.60;;;1.00;;
35084;SDS011;21267;51.032;6.998;2023-07-31T12:16:58;2.25;;;1.00;;
35084;SDS011;21267;51.032;6.998;2023-07-31T12:19:26;2.10;;;0.80;;
35084;SDS011;21267;51.032;6.998;2023-07-31T12:21:58;2.53;;;0.55;;
35084;SDS011;21267;51.032;6.998;2023-07-31T12:24:28;0.95;;;0.47;;
35084;SDS011;21267;51.032;6.998;2023-07-31T12:26:55;1.38;;;1.02;;
35084;SDS011;21267;51.032;6.998;2023-07-31T12:29:21;3.10;;;1.03;;
35084;SDS011;21267;51.032;6.998;2023-07-31T12:31:48;2.20;;;0.90;;
35084;SDS011;21267;51.032;6.998;2023-07-31T12:34:16;1.15;;;0.93;;
35084;SDS011;21267;51.032;6.998;2023-07-31T12:36:44;2.63;;;1.10;;
35084;SDS011;21267;51.032;6.998;2023-07-31T12:39:14;1.60;;;1.25;;
35084;SDS011;21267;51.032;6.998;2023-07-31T12:41:43;2.38;;;1.70;;
35084;SDS011;21267;51.032;6.998;2023-07-31T12:44:10;2.30;;;1.53;;
35084;SDS011;21267;51.032;6.998;2023-07-31T12:46:37;2.45;;;1.77;;
35084;SDS011;21267;51.032;6.998;2023-07-31T12:51:31;2.67;;;1.90;;
35084;SDS011;21267;51.032;6.998;2023-07-31T12:53:58;2.90;;;1.70;;
35084;SDS011;21267;51.032;6.998;2023-07-31T12:56:24;5.30;;;2.10;;
35084;SDS011;21267;51.032;6.998;2023-07-31T12:58:51;5.10;;;1.57;;
35084;SDS011;21267;51.032;6.998;2023-07-31T13:01:18;2.70;;;2.50;;
35084;SDS011;21267;51.032;6.998;2023-07-31T13:03:45;2.70;;;1.60;;
35084;SDS011;21267;51.032;6.998;2023-07-31T13:06:11;4.63;;;1.87;;
35084;SDS011;21267;51.032;6.998;2023-07-31T13:08:39;3.28;;;1.80;;
35084;SDS011;21267;51.032;6.998;2023-07-31T13:11:06;3.53;;;2.77;;
35084;SDS011;21267;51.032;6.998;2023-07-31T13:13:33;5.03;;;2.30;;
35084;SDS011;21267;51.032;6.998;2023-07-31T13:16:00;3.10;;;2.05;;
35084;SDS011;21267;51.032;6.998;2023-07-31T13:18:27;2.30;;;1.60;;
35084;SDS011;21267;51.032;6.998;2023-07-31T13:20:53;3.97;;;1.83;;
35084;SDS011;21267;51.032;6.998;2023-07-31T13:23:23;2.60;;;1.50;;
35084;SDS011;21267;51.032;6.998;2023-07-31T13:25:49;4.33;;;2.57;;
35084;SDS011;21267;51.032;6.998;2023-07-31T13:28:16;4.97;;;3.07;;
35084;SDS011;21267;51.032;6.998;2023-07-31T13:30:43;3.17;;;1.80;;
35084;SDS011;21267;51.032;6.998;2023-07-31T13:33:10;1.90;;;1.58;;
35084;SDS011;21267;51.032;6.998;2023-07-31T13:35:55;3.50;;;2.05;;
35084;SDS011;21267;51.032;6.998;2023-07-31T13:38:22;2.08;;;1.50;;
35084;SDS011;21267;51.032;6.998;2023-07-31T13:40:51;3.10;;;2.08;;
35084;SDS011;21267;51.032;6.998;2023-07-31T13:43:18;4.23;;;2.10;;
35084;SDS011;21267;51.032;6.998;2023-07-31T13:45:45;4.57;;;3.10;;
35084;SDS011;21267;51.032;6.998;2023-07-31T13:48:12;6.18;;;4.40;;
35084;SDS011;21267;51.032;6.998;2023-07-31T13:50:40;3.57;;;2.40;;
35084;SDS011;21267;51.032;6.998;2023-07-31T13:53:07;8.50;;;4.68;;
35084;SDS011;21267;51.032;6.998;2023-07-31T13:55:34;8.10;;;4.40;;
35084;SDS011;21267;51.032;6.998;2023-07-31T13:58:01;14.40;;;5.57;;
35084;SDS011;21267;51.032;6.998;2023-07-31T14:00:28;7.63;;;3.85;;
35084;SDS011;21267;51.032;6.998;2023-07-31T14:05:23;3.45;;;2.03;;
35084;SDS011;21267;51.032;6.998;2023-07-31T14:07:50;4.75;;;2.58;;
35084;SDS011;21267;51.032;6.998;2023-07-31T14:10:17;2.60;;;1.93;;
35084;SDS011;21267;51.032;6.998;2023-07-31T14:12:44;5.33;;;2.97;;
35084;SDS011;21267;51.032;6.998;2023-07-31T14:15:10;5.67;;;3.30;;
35084;SDS011;21267;51.032;6.998;2023-07-31T14:17:37;7.10;;;3.38;;
35084;SDS011;21267;51.032;6.998;2023-07-31T14:20:07;4.40;;;2.90;;
35084;SDS011;21267;51.032;6.998;2023-07-31T14:22:35;8.55;;;4.07;;
35084;SDS011;21267;51.032;6.998;2023-07-31T14:25:02;2.97;;;2.35;;
35084;SDS011;21267;51.032;6.998;2023-07-31T14:27:29;2.55;;;2.35;;
35084;SDS011;21267;51.032;6.998;2023-07-31T14:29:56;3.40;;;2.33;;
35084;SDS011;21267;51.032;6.998;2023-07-31T14:32:23;6.13;;;2.57;;
35084;SDS011;21267;51.032;6.998;2023-07-31T14:34:52;4.90;;;2.63;;
35084;SDS011;21267;51.032;6.998;2023-07-31T14:37:19;2.40;;;2.00;;
35084;SDS011;21267;51.032;6.998;2023-07-31T14:39:46;2.70;;;2.17;;
35084;SDS011;21267;51.032;6.998;2023-07-31T14:42:13;4.03;;;2.45;;
35084;SDS011;21267;51.032;6.998;2023-07-31T14:44:40;2.67;;;2.22;;
35084;SDS011;21267;51.032;6.998;2023-07-31T14:47:10;2.45;;;2.25;;
35084;SDS011;21267;51.032;6.998;2023-07-31T14:49:36;2.53;;;2.13;;
35084;SDS011;21267;51.032;6.998;2023-07-31T14:52:03;4.03;;;2.23;;
35084;SDS011;21267;51.032;6.998;2023-07-31T14:56:57;3.75;;;2.83;;
35084;SDS011;21267;51.032;6.998;2023-07-31T14:59:24;5.37;;;2.70;;
35084;SDS011;21267;51.032;6.998;2023-07-31T15:01:51;2.37;;;2.13;;
35084;SDS011;21267;51.032;6.998;2023-07-31T15:04:18;3.70;;;2.63;;
35084;SDS011;21267;51.032;6.998;2023-07-31T15:06:48;4.70;;;2.72;;
35084;SDS011;21267;51.032;6.998;2023-07-31T15:09:15;4.18;;;2.78;;
35084;SDS011;21267;51.032;6.998;2023-07-31T15:11:47;3.28;;;2.97;;
35084;SDS011;21267;51.032;6.998;2023-07-31T15:14:24;4.15;;;3.00;;
35084;SDS011;21267;51.032;6.998;2023-07-31T15:16:52;3.58;;;2.97;;
35084;SDS011;21267;51.032;6.998;2023-07-31T15:19:18;9.20;;;4.28;;
35084;SDS011;21267;51.032;6.998;2023-07-31T15:21:45;4.13;;;3.73;;
35084;SDS011;21267;51.032;6.998;2023-07-31T15:24:12;4.40;;;3.17;;
35084;SDS011;21267;51.032;6.998;2023-07-31T15:26:40;2.97;;;2.63;;
35084;SDS011;21267;51.032;6.998;2023-07-31T15:29:08;6.90;;;4.13;;
35084;SDS011;21267;51.032;6.998;2023-07-31T15:31:36;8.45;;;5.20;;